Chaleur - Miscou: Past 24 Hour Conditions

 

Port aux Basques

08:30 AM NDT 20 April 2014
This table is a summary of hourly weather conditions for the past 24 hours.
Date / Time
(NDT)
Wind(knots) Conditions Visibility(km) Pressure(kPa) Air tempC) Relative humidity(%) Dew pointC) Wind Chill
20 April 2014
8:30 NW 15 Mainly Sunny 15 102.1 0 81 -3 -7
7:30 NNW 15 Sunny 15 102.0 -1 72 -5 -7
6:30 NNW 17 Sunny 15 101.9 -1 64 -7 -8
5:30 W 9 Clear 15 101.8 -1 80 -4 -6
4:30 NNW 11 gust 19 Mainly Clear 15 101.8 -1 78 -5 -7
3:30 NNW 19 Cloudy 15 101.7 -1 80 -4 -9
2:30 NW 14 gust 19 Cloudy 15 101.7 -1 81 -4 -8
1:30 NW 11 gust 17 Clear 15 101.6 -1 78 -5 -7
0:30 NW 8 Mostly Cloudy 15 101.6 -1 79 -4 -6
19 April 2014
23:30 NNW 17 gust 24 Mainly Clear 15 101.6 -1 78 -4 -8
22:30 NNW 12 Clear 15 101.5 -1 73 -5 -7
21:30 NW 8 gust 15 Clear 15 101.5 -1 72 -5 -5
20:30 NNW 11 Clear 15 101.5 0 76 -4 -6
19:30 NNW 11 Sunny 15 101.5 0 73 -4 *
18:30 WNW 15 Mainly Sunny 15 101.5 0 82 -3 -7
17:30 WNW 11 Cloudy 15 101.5 0 85 -2 -5
16:30 SE 4 Mostly Cloudy 15 101.5 0 85 -2 *
15:30 ESE 7 Cloudy 15 101.6 0 85 -2 *
14:30 E 8 Cloudy 15 101.7 0 83 -2 *
13:30 E 11 Cloudy 15 101.8 0 83 -3 *
12:30 E 7 Cloudy 15 101.9 0 84 -3 -4
11:30 E 9 Cloudy 15 102.0 0 84 -3 -5
10:30 E 10 Cloudy 15 102.0 -1 84 -3 -6
9:30 ESE 12 Mostly Cloudy 15 102.0 -1 85 -3 -7
8:30 ESE 14 Cloudy 15 102.1 -1 84 -3 -7
 
Map of Atlantic - Newfoundland marine weather areas Southwestern Grand Banks - 44138 Banquereau - 44139 Tail of the Bank - 44140 Nickerson Bank - 44251 Northeast Burgeo Bank - 44255 Blanc-Sablon Airport Cap Whittle Chevery Natashquan Airport Heath Point Miscou Island Grand Étang Ingonish Beach North Mountain St.Paul Island J.A. Douglas McCurdy Sydney Airport Charlottetown Airport East Point North Cape Argentia Bonavista Burgeo Cape Race Corner Brook Daniel's Harbour Englee Ferolle Point La Scie Port aux Basques Rocky Harbour Sagona Island St. Anthony Airport St. John's Int'l Airport St. Lawrence Stephenville Airport Twillingate Winterland Wreckhouse Cartwright Airport Mary's Harbour Grates Cove Pool's Island Marticot Island Long Pond Îles de la Madeleine Airport
Legend: buoyBuoy land stationLand Station